Weather observations for the past three days for
Gatesville, City-County Airport
Metric (Imperial)
Date Time (cdt) Wind (kph) Vis. (km) Weather Sky Cond. Temperature (ºC) Relative Humidity Wind Chill (°C) Heat Index (°C) Pressure Precipitation (cm)
Air Dwpt 6 hour altimeter (cm) sea level (mb) 1 hr 3 hr 6 hr
Max. Min.
07 01:55 NE 7 G 22 16.09 Overcast OVC011 14 14 100% 76.23 0.0
07 01:35 Vrbl 9 16.09 Overcast OVC013 15 14 94% 76.23 0.0
07 01:15 Vrbl 7 G 19 16.09 Overcast OVC013 15 14 94% 76.23 0.0
07 00:55 Vrbl 7 16.09 Overcast OVC014 15 14 94% 76.23 0.0
07 00:35 NE 9 G 19 16.09 Mostly Cloudy BKN014 15 14 94% 76.23 0.0
07 00:15 NE 17 16.09 Fair CLR 15 14 94% 76.23 0.0
06 23:55 NE 15 G 26 16.09 Fair CLR 15 14 94% 76.2 0.0
06 23:35 Vrbl 11 16.09 Fair CLR 15 14 94% 76.23 0.0
06 23:15 Vrbl 9 G 24 16.09 Fair CLR 15 14 94% 76.2 0.0
06 22:55 NE 11 16.09 Fair CLR 15 14 94% 76.2 0.0
06 22:15 Calm 16.09 Overcast OVC031 16 15 94% 76.23 0.0
06 21:55 N 6 16.09 Overcast OVC032 16 15 94% 76.2 0.0
06 21:35 N 7 16.09 Overcast OVC031 16 15 94% 76.17 0.0
06 21:15 N 9 16.09 Overcast OVC031 16 15 94% 76.17 0.0
06 20:55 N 7 16.09 Overcast OVC030 16 15 94% 76.12 0.0
06 20:35 N 7 16.09 Overcast OVC029 16 15 94% 76.1 0.0
06 20:15 Vrbl 6 16.09 Overcast OVC029 16 15 94% 76.07 0.0
06 19:55 N 9 16.09 Overcast OVC025 16 15 94% 76.05 0.0
06 19:35 N 7 16.09 Overcast OVC025 16 15 94% 76.02 0.0
06 19:15 N 9 16.09 Overcast OVC025 16 15 94% 76.02 0.0
06 18:55 N 11 16.09 Overcast OVC026 16 15 94% 76.02 0.0
06 18:35 N 11 16.09 Overcast OVC026 17 15 88% 76.02 0.0
06 17:55 N 11 16.09 Overcast OVC022 16 14 88% 76 0.0
06 17:35 NE 9 16.09 Overcast OVC021 16 15 94% 76 0.0
06 17:15 N 15 16.09 Overcast OVC019 16 14 88% 76 0.0
06 16:35 N 17 16.09 Overcast OVC013 15 14 94% 76 0.0
06 16:15 NW 13 16.09 Overcast OVC013 15 14 94% 76.02 0.0
06 15:55 N 15 G 24 16.09 Overcast OVC012 15 14 94% 76.02 0.0
06 15:35 NW 9 G 24 16.09 Overcast OVC011 14 13 94% 76.05 0.0
06 15:15 NW 17 16.09 Overcast OVC012 14 13 94% 76.05 0.0
06 14:55 N 20 16.09 Overcast OVC013 15 14 94% 76.05 0.0
06 14:35 N 17 16.09 Overcast OVC011 15 14 94% 76.05 0.0
06 14:15 NW 17 G 28 16.09 Overcast OVC011 14 14 100% 76.07 0.0
06 13:55 N 17 G 28 16.09 Overcast OVC011 14 14 100% 76.07 0.0
06 13:35 N 17 G 26 16.09 Overcast OVC010 14 13 94% 76.07 0.0
06 13:15 N 13 16.09 Overcast OVC009 14 14 100% 76.07 0.0
06 12:55 N 19 16.09 Overcast OVC010 14 13 94% 76.1 0.0
06 12:35 N 19 G 28 16.09 Overcast OVC010 14 14 100% 76.05 0.0
06 12:15 N 17 16.09 Overcast OVC009 14 14 100% 76.05 0.0
06 11:55 Vrbl 7 G 20 16.09 Overcast OVC009 14 14 100% 76.02 0.0
06 11:35 N 15 G 28 16.09 Mostly Cloudy SCT008 BKN012 14 14 100% 76 0.0
06 11:15 SE 13 G 26 16.09 Light Rain CLR 14 14 100% 75.97 0.0
06 10:55 NE 13 8.05 Light Rain Fog/Mist FEW049 13 13 100% 75.95 0.0
06 10:35 Vrbl 11 11.27 Light Rain FEW015 SCT026 BKN050 13 13 100% 76.05 0.0
06 10:15 N 17 G 30 16.09 Light Rain BKN014 OVC022 13 13 100% 76.05 0.0
06 09:55 N 15 G 31 16.09 Thunderstorm in Vicinity OVC014 14 13 94% 76.05 0.0
06 09:35 N 26 16.09 Overcast OVC013 15 14 94% 76.05 0.0
06 09:15 N 26 16.09 Overcast OVC012 15 14 94% 76.05 0.0
06 08:55 N 20 G 30 16.09 Overcast OVC011 15 15 100% 76 0.0
06 08:35 N 11 14.48 Light Drizzle OVC012 16 15 94% 75.92 0.0
06 08:15 N 13 14.48 Light Drizzle OVC012 16 16 100% 75.92 0.0
06 07:55 N 19 16.09 Overcast OVC013 17 16 94% 75.87 0.0
06 07:35 N 17 16.09 Overcast OVC014 17 16 94% 75.84 0.0
06 06:55 N 15 G 26 16.09 Overcast OVC012 18 16 88% 75.82 0.0
06 06:35 N 11 16.09 Overcast OVC012 18 16 88% 75.79 0.0
06 06:15 N 13 16.09 Overcast OVC012 18 17 94% 75.79 0.0
06 05:55 N 13 16.09 Overcast OVC012 19 17 88% 75.77 0.0
06 05:35 N 11 16.09 Overcast OVC012 19 18 94% 75.74 0.0
06 05:15 N 13 G 22 16.09 Overcast OVC011 19 18 94% 75.74 0.0
06 04:55 N 11 16.09 Overcast OVC011 19 18 94% 75.72 0.0
06 04:35 N 11 16.09 Overcast OVC010 19 18 94% 75.69 0.0
06 04:15 N 9 14.48 Light Drizzle OVC008 20 20 100% 75.69 0.0
06 03:55 N 11 11.27 Light Drizzle BKN007 OVC013 21 21 100% 75.67 0.0
06 03:35 Calm 4.83 Light Drizzle Fog/Mist OVC011 21 21 100% 75.64 0.0
06 03:15 Calm 12.87 Overcast OVC011 21 21 100% 75.64 0.0
06 02:55 Calm 4.83 Light Drizzle Fog/Mist OVC010 22 21 94% 75.64 0.0
06 02:35 N 7 12.87 Overcast OVC011 23 22 94% 75.64 0.0
06 02:15 SE 6 16.09 Overcast OVC013 24 24 100% 23 75.64 0.0
06 01:55 Calm 16.09 Overcast OVC013 24 24 100% 23 75.64 0.0
06 01:35 SE 7 16.09 Overcast OVC014 24 24 100% 23 75.64 0.0
06 01:15 Calm 16.09 Overcast OVC015 24 24 100% 23 75.64 0.0
06 00:55 Calm 16.09 Overcast OVC016 25 24 94% 26 75.64 0.0
06 00:35 Calm 16.09 Overcast OVC017 24 24 100% 23 75.64 0.0
06 00:15 NE 6 16.09 Mostly Cloudy BKN017 24 24 100% 23 75.67 0.0
05 23:55 N 7 16.09 A Few Clouds FEW020 24 24 100% 23 75.64 0.0
05 23:35 Calm 14.48 Fair CLR 24 24 100% 23 75.59 0.0
05 23:15 Calm 16.09 Fair CLR 25 24 94% 26 75.59 0.0
05 22:55 SE 11 16.09 Fair CLR 25 24 94% 26 75.54 0.0
05 22:35 SE 11 16.09 Fair CLR 25 24 94% 26 75.54 0.0
05 22:15 SE 13 16.09 Fair CLR 25 24 94% 26 75.51 0.0
05 21:55 Vrbl 11 16.09 Fair CLR 26 24 89% 28 75.49 0.0
05 21:35 Vrbl 11 16.09 Fair CLR 26 24 89% 28 75.46 0.0
05 21:15 S 9 16.09 Fair CLR 26 24 89% 28 75.44 0.0
05 20:55 SE 11 16.09 Fair CLR 26 24 89% 28 75.44 0.0
05 20:35 SE 9 16.09 Fair CLR 27 23 79% 30 75.41 0.0
05 20:15 SE 9 16.09 Fair CLR 27 24 84% 30 75.39 0.0
05 19:55 S 13 16.09 Fair CLR 28 24 79% 32 75.39 0.0
05 19:35 S 17 16.09 Fair CLR 28 24 79% 32 75.39 0.0
05 19:15 SE 19 G 31 16.09 Fair CLR 29 24 74% 34 75.39 0.0
05 18:55 Vrbl 11 G 26 16.09 Fair CLR 31 23 62% 35 75.39 0.0
05 18:35 S 15 G 31 16.09 Fair CLR 31 23 62% 35 75.36 0.0
05 18:15 S 15 16.09 Fair CLR 31 23 62% 35 75.36 0.0
05 17:55 S 17 G 28 16.09 Fair CLR 31 23 62% 35 75.36 0.0
05 17:35 S 19 G 28 16.09 Fair CLR 32 23 59% 37 75.36 0.0
05 17:15 S 15 G 26 16.09 Fair CLR 31 24 66% 37 75.36 0.0
05 16:55 S 15 G 26 16.09 Fair CLR 31 23 62% 35 75.36 0.0
05 16:35 S 13 G 26 16.09 Fair CLR 32 23 59% 37 75.36 0.0
05 16:15 S 13 G 22 16.09 Fair CLR 32 23 59% 37 75.39 0.0
05 15:55 S 13 G 28 16.09 Fair CLR 31 23 62% 35 75.41 0.0
05 15:35 S 13 G 24 16.09 Fair CLR 31 23 62% 35 75.44 0.0
05 15:15 S 13 G 26 16.09 Fair CLR 31 23 62% 35 75.44 0.0
05 14:55 S 19 16.09 Fair CLR 31 23 62% 35 75.44 0.0
05 14:35 SW 19 G 28 16.09 Fair CLR 31 22 59% 35 75.46 0.0
05 14:15 SW 17 G 35 16.09 Fair CLR 31 23 62% 35 75.46 0.0
05 13:55 SW 17 G 33 16.09 Fair CLR 30 22 62% 33 75.49 0.0
05 13:35 S 22 16.09 Fair CLR 30 23 66% 34 75.51 0.0
05 13:15 S 20 G 33 16.09 Fair CLR 30 23 66% 34 75.51 0.0
05 12:55 SW 17 G 30 16.09 Fair CLR 29 22 66% 32 75.54 0.0
05 12:35 S 20 16.09 Fair CLR 29 22 66% 32 75.54 0.0
05 11:55 SW 19 G 31 16.09 Fair CLR 28 22 70% 31 75.57 0.0
05 11:35 SW 22 G 33 16.09 Fair CLR 27 22 74% 29 75.57 0.0
05 11:15 S 26 G 39 16.09 Fair CLR 27 22 74% 29 75.57 0.0
05 10:55 SW 28 16.09 A Few Clouds FEW024 27 22 74% 29 75.57 0.0
05 10:35 SW 24 G 37 16.09 Mostly Cloudy BKN023 26 22 79% 28 75.59 0.0
05 10:15 S 30 16.09 Mostly Cloudy BKN021 25 22 83% 26 75.57 0.0
05 09:55 S 22 G 35 16.09 Overcast OVC020 25 22 83% 26 75.59 0.0
05 09:35 S 24 G 37 16.09 Overcast OVC019 24 22 89% 24 75.57 0.0
05 09:15 S 19 G 33 16.09 Overcast OVC019 24 22 89% 24 75.57 0.0
05 08:55 S 22 G 37 16.09 Overcast OVC020 24 22 89% 24 75.54 0.0
05 08:35 S 20 16.09 Overcast OVC020 23 22 94% 75.54 0.0
05 08:15 S 19 16.09 Overcast OVC020 23 21 89% 75.51 0.0
05 07:35 S 19 16.09 Overcast OVC020 22 21 94% 75.49 0.0
05 07:15 S 17 16.09 Overcast OVC020 22 21 94% 75.49 0.0
05 06:55 S 19 G 31 16.09 Overcast OVC020 22 21 94% 75.46 0.0
05 06:15 S 22 16.09 Overcast OVC019 22 21 94% 75.44 0.0
05 05:55 S 20 16.09 Overcast OVC019 22 21 94% 75.44 0.0
05 05:35 S 17 16.09 Overcast OVC020 22 21 94% 75.46 0.0
05 05:15 S 13 G 26 16.09 Overcast OVC020 22 21 94% 75.46 0.0
05 04:55 Vrbl 9 16.09 Overcast OVC020 22 21 94% 75.46 0.0
05 04:35 S 7 G 20 16.09 Overcast OVC020 22 21 94% 75.49 0.0
05 04:15 S 15 G 24 16.09 Overcast OVC019 22 21 94% 75.46 0.0
05 03:55 S 13 G 24 16.09 Overcast OVC018 22 21 94% 75.46 0.0
05 03:35 S 13 G 26 14.48 Overcast OVC018 22 21 94% 75.49 0.0
05 03:15 S 15 16.09 Overcast OVC017 22 21 94% 75.49 0.0
05 02:55 S 17 G 31 16.09 Overcast OVC017 22 21 94% 75.51 0.0
05 02:35 S 17 G 28 16.09 Overcast OVC017 23 21 89% 75.54 0.0
05 02:15 S 19 16.09 Overcast OVC017 23 21 89% 75.57 0.0
05 01:55 S 15 G 28 16.09 Overcast OVC018 22 21 94% 75.59 0.0
05 01:35 S 15 G 28 16.09 Overcast OVC019 22 21 94% 75.59 0.0
05 01:15 S 15 16.09 Mostly Cloudy BKN019 22 21 94% 75.62 0.0
05 00:55 S 15 G 26 16.09 A Few Clouds FEW020 23 21 89% 75.62 0.0
05 00:35 S 11 16.09 Fair CLR 23 21 89% 75.62 0.0
05 00:15 S 11 16.09 Fair CLR 23 20 83% 75.62 0.0
04 23:55 SE 11 16.09 Fair CLR 23 20 83% 75.62 0.0
04 23:35 S 13 16.09 Fair CLR 23 20 83% 75.64 0.0
04 23:15 S 17 G 28 16.09 Fair CLR 23 20 83% 75.62 0.0
04 22:55 S 9 G 19 16.09 Fair CLR 23 19 78% 75.62 0.0
04 22:35 S 13 16.09 Fair CLR 23 19 78% 75.62 0.0
04 22:15 S 9 16.09 Fair CLR 24 19 74% 25 75.62 0.0
04 21:55 S 11 16.09 Fair CLR 24 19 74% 25 75.62 0.0
04 21:35 S 13 16.09 Fair CLR 24 19 74% 25 75.59 0.0
04 21:15 S 13 16.09 Fair CLR 25 19 69% 26 75.57 0.0
04 20:55 S 15 16.09 Fair CLR 25 19 69% 26 75.57 0.0
04 20:35 S 11 16.09 Fair CLR 25 19 69% 26 75.57 0.0
04 20:15 S 15 G 26 16.09 Fair CLR 26 19 65% 27 75.57 0.0
04 19:55 S 13 G 26 16.09 Fair CLR 26 19 65% 27 75.57 0.0
04 19:35 S 17 16.09 Fair CLR 27 19 62% 28 75.57 0.0
04 19:15 S 15 G 28 16.09 Fair CLR 27 19 62% 28 75.57 0.0
04 18:55 S 15 G 30 16.09 Fair CLR 27 19 62% 28 75.57 0.0
04 18:35 S 17 G 33 16.09 Fair CLR 28 19 58% 29 75.57 0.0
04 18:15 S 15 G 37 16.09 Fair CLR 29 19 55% 30 75.59 0.0
04 17:55 S 26 G 39 16.09 A Few Clouds FEW047 29 19 55% 30 75.62 0.0
04 17:35 S 19 G 39 16.09 Fair CLR 29 19 55% 30 75.59 0.0
04 17:15 S 22 G 33 16.09 Fair CLR 28 19 58% 29 75.62 0.0
04 16:55 S 20 G 37 16.09 Fair CLR 28 19 58% 29 75.64 0.0
04 16:35 S 17 G 41 16.09 Fair CLR 28 19 58% 29 75.67 0.0
04 16:15 S 20 G 33 16.09 Fair CLR 28 19 58% 29 75.69 0.0
04 15:55 S 20 G 35 16.09 A Few Clouds FEW042 27 19 62% 28 75.72 0.0
04 15:35 S 20 G 33 16.09 A Few Clouds FEW042 27 19 62% 28 75.74 0.0
04 15:15 S 22 G 35 16.09 Fair CLR 27 19 62% 28 75.79 0.0
04 14:55 S 24 G 39 16.09 Thunderstorm in Vicinity FEW037 27 19 62% 28 75.82 0.0
04 14:35 S 20 G 33 16.09 A Few Clouds FEW037 27 19 62% 28 75.84 0.0
04 14:15 S 20 G 39 16.09 Partly Cloudy SCT035 26 19 65% 27 75.84 0.0
04 13:55 S 26 16.09 Partly Cloudy SCT034 25 18 65% 26 75.9 0.0
04 13:35 S 24 G 35 16.09 Partly Cloudy SCT034 26 18 61% 27 75.92 0.0
04 13:15 SW 20 G 43 16.09 Partly Cloudy SCT034 25 18 65% 26 75.92 0.0
04 12:55 SW 26 G 41 16.09 Mostly Cloudy BKN034 25 18 65% 26 75.95 0.0
04 12:35 S 33 G 44 16.09 Thunderstorm in Vicinity and Breezy BKN034 25 18 65% 26 75.97 0.0
04 12:15 S 30 16.09 Thunderstorm in Vicinity BKN034 25 18 65% 26 75.97 0.0
04 11:55 S 26 G 39 16.09 Thunderstorm in Vicinity BKN033 24 18 69% 25 76 0.0
04 11:35 S 28 G 44 16.09 Thunderstorm in Vicinity BKN032 24 17 65% 25 76 0.0
04 11:15 S 30 16.09 Thunderstorm in Vicinity SCT031 23 17 69% 76.02 0.0
04 10:55 SW 31 G 43 16.09 Partly Cloudy SCT029 23 17 69% 76.05 0.0
04 10:35 S 28 16.09 A Few Clouds FEW026 22 17 73% 76.05 0.0
04 10:15 S 24 16.09 Partly Cloudy SCT025 21 17 78% 76.07 0.0
04 09:55 S 30 G 43 16.09 Partly Cloudy SCT024 21 17 78% 76.07 0.0
04 09:35 S 26 G 39 16.09 A Few Clouds FEW024 20 16 78% 76.07 0.0
04 09:15 S 30 G 41 16.09 Fair CLR 20 16 78% 76.07 0.0
04 08:55 S 20 16.09 Fair CLR 19 16 83% 76.07 0.0
04 08:35 S 19 G 31 16.09 Fair CLR 18 15 83% 76.07 0.0
04 08:15 S 13 G 24 16.09 Fair CLR 17 15 88% 76.07 0.0
04 07:55 Vrbl 11 16.09 Fair CLR 17 15 88% 76.07 0.0
04 07:35 S 9 16.09 Fair CLR 15 15 100% 76.07 0.0
04 07:15 SE 7 16.09 Fair CLR 15 14 94% 76.05 0.0
04 06:55 Calm 16.09 Fair CLR 14 14 100% 76.05 0.0
04 06:35 SE 6 16.09 Fair CLR 14 14 100% 76.02 0.0
04 06:15 SE 7 16.09 Fair CLR 15 14 94% 76.05 0.0
04 05:55 SE 9 16.09 Fair CLR 15 14 94% 76.05 0.0
04 05:35 SE 7 16.09 Fair CLR 15 14 94% 76.07 0.0
04 05:15 SE 6 16.09 Fair CLR 15 14 94% 76.1 0.0
04 04:55 SE 6 16.09 Fair CLR 15 14 94% 76.1 0.0
04 04:35 S 7 16.09 Fair CLR 15 14 94% 76.1 0.0
04 04:15 S 7 16.09 Fair CLR 16 14 88% 76.1 0.0
04 03:55 S 9 16.09 Fair CLR 16 14 88% 76.1 0.0
04 03:35 S 9 16.09 Fair CLR 16 13 83% 76.1 0.0
04 03:15 S 13 G 24 16.09 Fair CLR 17 13 77% 76.1 0.0
04 02:55 S 15 16.09 Fair CLR 17 13 77% 76.1 0.0
04 02:35 S 13 G 24 16.09 Fair CLR 17 13 77% 76.12 0.0
04 02:15 S 13 G 22 16.09 Fair CLR 17 13 77% 76.15 0.0
Date Time (cdt) Wind (kph) Vis. (km) Weather Sky Cond. Air Dwpt Max. Min. Relative Humidity Wind Chill (°C) Heat Index (°C) altimeter (cm) sea level (mb) 1 hr 3 hr 6 hr
6 hour
Temperature (ºC) Pressure Precipitation (cm)